sensor_id;sensor_type;location;lat;lon;timestamp;pressure;altitude;pressure_sealevel;temperature;humidity
13027;BME280;6580;42.680;23.324;2023-02-28T00:00:51;95761.38;;;8.21;100.00
13027;BME280;6580;42.680;23.324;2023-02-28T00:03:18;95766.47;;;7.93;100.00
13027;BME280;6580;42.680;23.324;2023-02-28T00:05:45;95762.91;;;8.03;100.00
13027;BME280;6580;42.680;23.324;2023-02-28T00:08:12;95759.63;;;8.10;100.00
13027;BME280;6580;42.680;23.324;2023-02-28T00:10:39;95634.47;;;7.25;100.00
13027;BME280;6580;42.680;23.324;2023-02-28T00:13:08;95751.81;;;8.09;100.00
13027;BME280;6580;42.680;23.324;2023-02-28T00:15:39;95742.88;;;8.10;100.00
13027;BME280;6580;42.680;23.324;2023-02-28T00:18:06;95779.31;;;8.28;100.00
13027;BME280;6580;42.680;23.324;2023-02-28T00:20:33;95766.81;;;8.40;100.00
13027;BME280;6580;42.680;23.324;2023-02-28T00:23:01;95764.25;;;8.29;100.00
13027;BME280;6580;42.680;23.324;2023-02-28T00:25:29;95781.75;;;8.41;100.00
13027;BME280;6580;42.680;23.324;2023-02-28T00:27:56;95778.13;;;8.42;100.00
13027;BME280;6580;42.680;23.324;2023-02-28T00:30:29;95783.38;;;8.32;100.00
13027;BME280;6580;42.680;23.324;2023-02-28T00:32:56;95763.22;;;8.20;100.00
13027;BME280;6580;42.680;23.324;2023-02-28T00:35:25;95773.47;;;8.14;100.00
13027;BME280;6580;42.680;23.324;2023-02-28T00:37:53;95779.97;;;8.21;100.00
13027;BME280;6580;42.680;23.324;2023-02-28T00:40:21;95775.09;;;8.26;100.00
13027;BME280;6580;42.680;23.324;2023-02-28T00:42:48;95780.94;;;8.20;100.00
13027;BME280;6580;42.680;23.324;2023-02-28T00:45:15;95777.25;;;8.32;100.00
13027;BME280;6580;42.680;23.324;2023-02-28T00:47:43;95764.16;;;8.40;100.00
13027;BME280;6580;42.680;23.324;2023-02-28T00:50:12;95765.66;;;8.33;100.00
13027;BME280;6580;42.680;23.324;2023-02-28T00:52:39;95768.97;;;8.25;100.00
13027;BME280;6580;42.680;23.324;2023-02-28T00:55:08;95761.03;;;8.14;100.00
13027;BME280;6580;42.680;23.324;2023-02-28T00:57:36;95759.13;;;8.16;100.00
13027;BME280;6580;42.680;23.324;2023-02-28T01:00:07;95761.28;;;8.11;100.00
13027;BME280;6580;42.680;23.324;2023-02-28T01:02:37;95746.19;;;8.02;100.00
13027;BME280;6580;42.680;23.324;2023-02-28T01:05:07;95770.09;;;7.92;100.00
13027;BME280;6580;42.680;23.324;2023-02-28T01:07:36;95770.56;;;7.97;100.00
13027;BME280;6580;42.680;23.324;2023-02-28T01:10:05;95763.13;;;7.91;100.00
13027;BME280;6580;42.680;23.324;2023-02-28T01:12:34;95774.63;;;8.01;100.00
13027;BME280;6580;42.680;23.324;2023-02-28T01:15:00;95762.53;;;7.87;100.00
13027;BME280;6580;42.680;23.324;2023-02-28T01:17:27;95753.50;;;7.90;100.00
13027;BME280;6580;42.680;23.324;2023-02-28T01:19:54;95753.16;;;7.83;100.00
13027;BME280;6580;42.680;23.324;2023-02-28T01:22:24;95763.50;;;7.86;100.00
13027;BME280;6580;42.680;23.324;2023-02-28T01:24:53;95754.97;;;7.83;100.00
13027;BME280;6580;42.680;23.324;2023-02-28T01:27:20;95754.41;;;7.79;100.00
13027;BME280;6580;42.680;23.324;2023-02-28T01:29:47;95758.41;;;7.94;100.00
13027;BME280;6580;42.680;23.324;2023-02-28T01:32:14;95755.28;;;7.89;100.00
13027;BME280;6580;42.680;23.324;2023-02-28T01:34:41;95752.88;;;7.86;100.00
13027;BME280;6580;42.680;23.324;2023-02-28T01:37:09;95747.72;;;7.85;100.00
13027;BME280;6580;42.680;23.324;2023-02-28T01:39:37;95757.22;;;7.87;100.00
13027;BME280;6580;42.680;23.324;2023-02-28T01:42:04;95759.56;;;7.81;100.00
13027;BME280;6580;42.680;23.324;2023-02-28T01:44:55;95759.56;;;7.81;100.00
13027;BME280;6580;42.680;23.324;2023-02-28T01:47:25;95756.41;;;7.87;100.00
13027;BME280;6580;42.680;23.324;2023-02-28T01:49:55;95771.63;;;7.74;100.00
13027;BME280;6580;42.680;23.324;2023-02-28T01:52:25;95758.59;;;7.61;100.00
13027;BME280;6580;42.680;23.324;2023-02-28T01:54:58;95758.84;;;7.47;100.00
13027;BME280;6580;42.680;23.324;2023-02-28T01:57:29;95771.53;;;7.75;100.00
13027;BME280;6580;42.680;23.324;2023-02-28T02:00:07;95767.31;;;7.93;100.00
13027;BME280;6580;42.680;23.324;2023-02-28T02:02:36;95765.56;;;7.83;100.00
13027;BME280;6580;42.680;23.324;2023-02-28T02:05:05;95768.94;;;7.85;100.00
13027;BME280;6580;42.680;23.324;2023-02-28T02:07:36;95765.97;;;7.78;100.00
13027;BME280;6580;42.680;23.324;2023-02-28T02:10:11;95732.00;;;7.52;100.00
13027;BME280;6580;42.680;23.324;2023-02-28T02:15:56;95753.47;;;7.69;100.00
13027;BME280;6580;42.680;23.324;2023-02-28T02:18:33;95754.72;;;7.86;100.00
13027;BME280;6580;42.680;23.324;2023-02-28T02:21:24;95764.16;;;7.79;100.00
13027;BME280;6580;42.680;23.324;2023-02-28T02:27:18;95755.22;;;7.80;100.00
13027;BME280;6580;42.680;23.324;2023-02-28T02:30:15;95749.81;;;7.81;100.00
13027;BME280;6580;42.680;23.324;2023-02-28T02:33:34;95753.44;;;7.80;100.00
13027;BME280;6580;42.680;23.324;2023-02-28T02:36:13;95745.81;;;7.55;100.00
13027;BME280;6580;42.680;23.324;2023-02-28T02:38:48;95763.44;;;7.77;100.00
13027;BME280;6580;42.680;23.324;2023-02-28T02:41:24;95757.16;;;7.78;100.00
13027;BME280;6580;42.680;23.324;2023-02-28T02:43:56;95765.50;;;7.94;100.00
13027;BME280;6580;42.680;23.324;2023-02-28T02:46:29;95759.38;;;7.93;100.00
13027;BME280;6580;42.680;23.324;2023-02-28T02:49:00;95764.47;;;7.85;100.00
13027;BME280;6580;42.680;23.324;2023-02-28T02:51:32;95767.19;;;7.74;100.00
13027;BME280;6580;42.680;23.324;2023-02-28T02:54:04;95765.19;;;7.67;100.00
13027;BME280;6580;42.680;23.324;2023-02-28T02:56:38;95773.53;;;7.62;100.00
13027;BME280;6580;42.680;23.324;2023-02-28T02:59:10;95781.81;;;7.69;100.00
13027;BME280;6580;42.680;23.324;2023-02-28T03:01:41;95776.41;;;7.59;100.00
13027;BME280;6580;42.680;23.324;2023-02-28T03:04:13;95778.97;;;7.50;100.00
13027;BME280;6580;42.680;23.324;2023-02-28T03:06:41;95791.63;;;7.46;100.00
13027;BME280;6580;42.680;23.324;2023-02-28T03:09:09;95801.47;;;7.55;100.00
13027;BME280;6580;42.680;23.324;2023-02-28T03:11:37;95787.97;;;7.58;100.00
13027;BME280;6580;42.680;23.324;2023-02-28T03:14:12;95801.34;;;7.57;100.00
13027;BME280;6580;42.680;23.324;2023-02-28T03:20:01;95819.66;;;7.60;100.00
13027;BME280;6580;42.680;23.324;2023-02-28T03:22:45;95810.78;;;7.50;100.00
13027;BME280;6580;42.680;23.324;2023-02-28T03:25:20;95811.78;;;7.69;100.00
13027;BME280;6580;42.680;23.324;2023-02-28T03:28:03;95777.13;;;7.30;100.00
13027;BME280;6580;42.680;23.324;2023-02-28T03:30:39;95816.81;;;7.41;100.00
13027;BME280;6580;42.680;23.324;2023-02-28T03:33:10;95800.38;;;7.26;100.00
13027;BME280;6580;42.680;23.324;2023-02-28T03:35:42;95828.91;;;7.65;100.00
13027;BME280;6580;42.680;23.324;2023-02-28T03:38:16;95816.41;;;7.56;100.00
13027;BME280;6580;42.680;23.324;2023-02-28T03:40:49;95825.75;;;7.71;100.00
13027;BME280;6580;42.680;23.324;2023-02-28T03:43:22;95806.38;;;7.71;100.00
13027;BME280;6580;42.680;23.324;2023-02-28T03:45:54;95816.09;;;7.81;100.00
13027;BME280;6580;42.680;23.324;2023-02-28T03:48:25;95825.56;;;7.63;100.00
13027;BME280;6580;42.680;23.324;2023-02-28T03:50:57;95819.50;;;7.72;100.00
13027;BME280;6580;42.680;23.324;2023-02-28T03:53:29;95828.88;;;7.76;100.00
13027;BME280;6580;42.680;23.324;2023-02-28T03:56:01;95823.78;;;7.84;100.00
13027;BME280;6580;42.680;23.324;2023-02-28T03:58:37;95832.75;;;7.72;100.00
13027;BME280;6580;42.680;23.324;2023-02-28T04:01:08;95833.91;;;7.48;100.00
13027;BME280;6580;42.680;23.324;2023-02-28T04:03:37;95832.38;;;7.34;100.00
13027;BME280;6580;42.680;23.324;2023-02-28T04:06:07;95826.78;;;7.59;100.00
13027;BME280;6580;42.680;23.324;2023-02-28T04:08:36;95832.59;;;7.74;100.00
13027;BME280;6580;42.680;23.324;2023-02-28T04:11:08;95816.91;;;7.61;100.00
13027;BME280;6580;42.680;23.324;2023-02-28T04:13:42;95833.31;;;7.76;100.00
13027;BME280;6580;42.680;23.324;2023-02-28T04:16:10;95819.78;;;7.58;100.00
13027;BME280;6580;42.680;23.324;2023-02-28T04:18:38;95824.94;;;7.71;100.00
13027;BME280;6580;42.680;23.324;2023-02-28T04:21:05;95817.63;;;7.63;100.00
13027;BME280;6580;42.680;23.324;2023-02-28T04:23:32;95819.06;;;7.56;100.00
13027;BME280;6580;42.680;23.324;2023-02-28T04:26:00;95817.25;;;7.57;100.00
13027;BME280;6580;42.680;23.324;2023-02-28T04:28:27;95841.66;;;7.71;100.00
13027;BME280;6580;42.680;23.324;2023-02-28T04:30:55;95833.16;;;7.57;100.00
13027;BME280;6580;42.680;23.324;2023-02-28T04:33:25;95808.47;;;7.56;100.00
13027;BME280;6580;42.680;23.324;2023-02-28T04:35:58;95827.25;;;7.53;100.00
13027;BME280;6580;42.680;23.324;2023-02-28T04:38:26;95835.34;;;7.52;100.00
13027;BME280;6580;42.680;23.324;2023-02-28T04:40:53;95833.56;;;7.41;100.00
13027;BME280;6580;42.680;23.324;2023-02-28T04:43:25;95821.09;;;7.21;100.00
13027;BME280;6580;42.680;23.324;2023-02-28T04:45:54;95845.53;;;7.25;100.00
13027;BME280;6580;42.680;23.324;2023-02-28T04:48:33;95848.66;;;7.19;100.00
13027;BME280;6580;42.680;23.324;2023-02-28T04:51:00;95860.06;;;7.41;100.00
13027;BME280;6580;42.680;23.324;2023-02-28T04:53:31;95862.72;;;7.30;100.00
13027;BME280;6580;42.680;23.324;2023-02-28T04:55:59;95866.38;;;7.18;100.00
13027;BME280;6580;42.680;23.324;2023-02-28T04:58:29;95865.03;;;7.35;100.00
13027;BME280;6580;42.680;23.324;2023-02-28T05:01:02;95869.72;;;7.31;100.00
13027;BME280;6580;42.680;23.324;2023-02-28T05:03:38;95862.34;;;7.46;100.00
13027;BME280;6580;42.680;23.324;2023-02-28T05:06:06;95860.06;;;7.41;100.00
13027;BME280;6580;42.680;23.324;2023-02-28T05:08:33;95842.72;;;7.37;100.00
13027;BME280;6580;42.680;23.324;2023-02-28T05:11:00;95855.59;;;7.53;100.00
13027;BME280;6580;42.680;23.324;2023-02-28T05:13:29;95861.31;;;7.26;100.00
13027;BME280;6580;42.680;23.324;2023-02-28T05:15:56;95867.06;;;7.42;100.00
13027;BME280;6580;42.680;23.324;2023-02-28T05:18:23;95862.59;;;7.43;100.00
13027;BME280;6580;42.680;23.324;2023-02-28T05:20:49;95866.84;;;7.23;100.00
13027;BME280;6580;42.680;23.324;2023-02-28T05:23:17;95870.31;;;7.35;100.00
13027;BME280;6580;42.680;23.324;2023-02-28T05:25:46;95865.38;;;7.30;100.00
13027;BME280;6580;42.680;23.324;2023-02-28T05:28:13;95872.06;;;7.56;100.00
13027;BME280;6580;42.680;23.324;2023-02-28T05:30:42;95876.66;;;7.54;100.00
13027;BME280;6580;42.680;23.324;2023-02-28T05:33:11;95881.47;;;7.60;100.00
13027;BME280;6580;42.680;23.324;2023-02-28T05:35:38;95872.69;;;7.49;100.00
13027;BME280;6580;42.680;23.324;2023-02-28T05:38:06;95881.84;;;7.45;100.00
13027;BME280;6580;42.680;23.324;2023-02-28T05:40:33;95881.31;;;7.73;100.00
13027;BME280;6580;42.680;23.324;2023-02-28T05:43:01;95882.41;;;7.70;100.00
13027;BME280;6580;42.680;23.324;2023-02-28T05:45:30;95882.06;;;7.64;100.00
13027;BME280;6580;42.680;23.324;2023-02-28T05:47:59;95890.94;;;7.74;100.00
13027;BME280;6580;42.680;23.324;2023-02-28T05:50:26;95887.47;;;7.73;100.00
13027;BME280;6580;42.680;23.324;2023-02-28T05:52:57;95876.84;;;7.73;100.00
13027;BME280;6580;42.680;23.324;2023-02-28T05:55:24;95892.28;;;7.79;100.00
13027;BME280;6580;42.680;23.324;2023-02-28T05:57:51;95901.19;;;7.78;100.00
13027;BME280;6580;42.680;23.324;2023-02-28T06:00:18;95899.22;;;7.91;100.00
13027;BME280;6580;42.680;23.324;2023-02-28T06:02:46;95897.03;;;7.96;100.00
13027;BME280;6580;42.680;23.324;2023-02-28T06:05:16;95889.09;;;7.85;100.00
13027;BME280;6580;42.680;23.324;2023-02-28T06:07:47;95862.38;;;7.77;100.00
13027;BME280;6580;42.680;23.324;2023-02-28T06:10:14;95893.84;;;8.02;100.00
13027;BME280;6580;42.680;23.324;2023-02-28T06:12:41;95886.88;;;8.01;100.00
13027;BME280;6580;42.680;23.324;2023-02-28T06:15:12;95890.97;;;8.16;100.00
13027;BME280;6580;42.680;23.324;2023-02-28T06:17:40;95879.09;;;8.20;100.00
13027;BME280;6580;42.680;23.324;2023-02-28T06:20:09;95875.25;;;8.13;100.00
13027;BME280;6580;42.680;23.324;2023-02-28T06:22:39;95886.03;;;8.01;100.00
13027;BME280;6580;42.680;23.324;2023-02-28T06:25:09;95885.94;;;7.91;100.00
13027;BME280;6580;42.680;23.324;2023-02-28T06:27:36;95885.66;;;8.05;100.00
13027;BME280;6580;42.680;23.324;2023-02-28T06:30:04;95884.69;;;8.17;100.00
13027;BME280;6580;42.680;23.324;2023-02-28T06:32:32;95885.84;;;8.24;100.00
13027;BME280;6580;42.680;23.324;2023-02-28T06:34:59;95891.63;;;8.29;100.00
13027;BME280;6580;42.680;23.324;2023-02-28T06:37:26;95889.47;;;8.23;100.00
13027;BME280;6580;42.680;23.324;2023-02-28T06:39:55;95902.00;;;8.21;100.00
13027;BME280;6580;42.680;23.324;2023-02-28T06:42:22;95902.69;;;8.34;100.00
13027;BME280;6580;42.680;23.324;2023-02-28T06:44:50;95902.63;;;8.24;100.00
13027;BME280;6580;42.680;23.324;2023-02-28T06:47:18;95905.53;;;8.42;100.00
13027;BME280;6580;42.680;23.324;2023-02-28T06:49:46;95900.03;;;8.54;100.00
13027;BME280;6580;42.680;23.324;2023-02-28T06:52:14;95897.75;;;8.29;100.00
13027;BME280;6580;42.680;23.324;2023-02-28T06:54:41;95908.75;;;8.25;100.00
13027;BME280;6580;42.680;23.324;2023-02-28T06:57:13;95914.69;;;8.17;100.00
13027;BME280;6580;42.680;23.324;2023-02-28T06:59:42;95915.75;;;8.26;100.00
13027;BME280;6580;42.680;23.324;2023-02-28T07:02:10;95916.38;;;8.18;100.00
13027;BME280;6580;42.680;23.324;2023-02-28T07:04:37;95918.72;;;8.32;100.00
13027;BME280;6580;42.680;23.324;2023-02-28T07:07:06;95913.34;;;8.23;100.00
13027;BME280;6580;42.680;23.324;2023-02-28T07:09:33;95915.66;;;8.16;100.00
13027;BME280;6580;42.680;23.324;2023-02-28T07:12:00;95908.22;;;8.00;100.00
13027;BME280;6580;42.680;23.324;2023-02-28T07:14:28;95918.69;;;8.01;100.00
13027;BME280;6580;42.680;23.324;2023-02-28T07:16:55;95909.53;;;8.05;100.00
13027;BME280;6580;42.680;23.324;2023-02-28T07:19:22;95911.81;;;8.09;100.00
13027;BME280;6580;42.680;23.324;2023-02-28T07:21:49;95902.78;;;8.01;100.00
13027;BME280;6580;42.680;23.324;2023-02-28T07:24:16;95908.56;;;8.06;100.00
13027;BME280;6580;42.680;23.324;2023-02-28T07:26:44;95917.38;;;7.96;100.00
13027;BME280;6580;42.680;23.324;2023-02-28T07:29:11;95914.69;;;8.17;100.00
13027;BME280;6580;42.680;23.324;2023-02-28T07:31:39;95920.84;;;8.18;100.00
13027;BME280;6580;42.680;23.324;2023-02-28T07:34:06;95909.81;;;8.54;100.00
13027;BME280;6580;42.680;23.324;2023-02-28T07:36:33;95896.00;;;8.60;100.00
13027;BME280;6580;42.680;23.324;2023-02-28T07:39:03;95910.06;;;8.92;100.00
13027;BME280;6580;42.680;23.324;2023-02-28T07:41:30;95910.53;;;9.06;100.00
13027;BME280;6580;42.680;23.324;2023-02-28T07:43:59;95904.16;;;9.08;100.00
13027;BME280;6580;42.680;23.324;2023-02-28T07:46:26;95911.31;;;8.88;100.00
13027;BME280;6580;42.680;23.324;2023-02-28T07:48:56;95892.09;;;9.05;100.00
13027;BME280;6580;42.680;23.324;2023-02-28T07:51:25;95905.72;;;9.20;100.00
13027;BME280;6580;42.680;23.324;2023-02-28T07:53:52;95899.81;;;9.07;100.00
13027;BME280;6580;42.680;23.324;2023-02-28T07:56:21;95903.38;;;9.27;100.00
13027;BME280;6580;42.680;23.324;2023-02-28T07:58:48;95901.94;;;9.23;100.00
13027;BME280;6580;42.680;23.324;2023-02-28T08:01:16;95886.00;;;9.23;100.00
13027;BME280;6580;42.680;23.324;2023-02-28T08:03:45;95896.44;;;9.45;100.00
13027;BME280;6580;42.680;23.324;2023-02-28T08:06:17;95898.69;;;9.49;100.00
13027;BME280;6580;42.680;23.324;2023-02-28T08:09:03;95891.34;;;9.62;100.00
13027;BME280;6580;42.680;23.324;2023-02-28T08:11:30;95875.09;;;9.75;100.00
13027;BME280;6580;42.680;23.324;2023-02-28T08:13:57;95886.81;;;10.40;100.00
13027;BME280;6580;42.680;23.324;2023-02-28T08:16:24;95884.03;;;10.41;100.00
13027;BME280;6580;42.680;23.324;2023-02-28T08:18:55;95884.72;;;10.53;100.00
13027;BME280;6580;42.680;23.324;2023-02-28T08:21:23;95884.31;;;10.48;100.00
13027;BME280;6580;42.680;23.324;2023-02-28T08:23:50;95888.63;;;10.68;100.00
13027;BME280;6580;42.680;23.324;2023-02-28T08:26:18;95878.94;;;10.67;100.00
13027;BME280;6580;42.680;23.324;2023-02-28T08:28:46;95885.66;;;10.90;100.00
13027;BME280;6580;42.680;23.324;2023-02-28T08:31:15;95875.56;;;10.74;100.00
13027;BME280;6580;42.680;23.324;2023-02-28T08:33:42;95880.72;;;10.85;100.00
13027;BME280;6580;42.680;23.324;2023-02-28T08:36:10;95892.38;;;10.75;100.00
13027;BME280;6580;42.680;23.324;2023-02-28T08:38:39;95891.28;;;10.77;100.00
13027;BME280;6580;42.680;23.324;2023-02-28T08:41:07;95889.16;;;10.81;100.00
13027;BME280;6580;42.680;23.324;2023-02-28T08:43:35;95895.75;;;10.77;100.00
13027;BME280;6580;42.680;23.324;2023-02-28T08:46:02;95893.50;;;10.82;100.00
13027;BME280;6580;42.680;23.324;2023-02-28T08:48:35;95891.28;;;10.68;100.00
13027;BME280;6580;42.680;23.324;2023-02-28T08:51:05;95891.97;;;10.89;100.00
13027;BME280;6580;42.680;23.324;2023-02-28T08:53:32;95889.66;;;11.03;100.00
13027;BME280;6580;42.680;23.324;2023-02-28T08:56:03;95876.06;;;10.97;100.00
13027;BME280;6580;42.680;23.324;2023-02-28T08:58:30;95893.22;;;10.85;100.00
13027;BME280;6580;42.680;23.324;2023-02-28T09:00:57;95885.28;;;11.11;100.00
13027;BME280;6580;42.680;23.324;2023-02-28T09:03:26;95896.41;;;10.98;100.00
13027;BME280;6580;42.680;23.324;2023-02-28T09:05:58;95895.00;;;10.94;100.00
13027;BME280;6580;42.680;23.324;2023-02-28T09:08:28;95892.63;;;11.00;100.00
13027;BME280;6580;42.680;23.324;2023-02-28T09:10:56;95871.94;;;11.11;100.00
13027;BME280;6580;42.680;23.324;2023-02-28T09:13:25;95883.41;;;11.31;100.00
13027;BME280;6580;42.680;23.324;2023-02-28T09:15:52;95881.81;;;11.38;100.00
13027;BME280;6580;42.680;23.324;2023-02-28T09:18:20;95870.03;;;11.40;100.00
13027;BME280;6580;42.680;23.324;2023-02-28T09:20:47;95888.50;;;11.51;100.00
13027;BME280;6580;42.680;23.324;2023-02-28T09:23:14;95884.38;;;11.30;100.00
13027;BME280;6580;42.680;23.324;2023-02-28T09:25:45;95890.66;;;10.93;100.00
13027;BME280;6580;42.680;23.324;2023-02-28T09:28:13;95885.41;;;11.19;100.00
13027;BME280;6580;42.680;23.324;2023-02-28T09:30:44;95879.50;;;11.25;100.00
13027;BME280;6580;42.680;23.324;2023-02-28T09:33:11;95868.84;;;11.25;100.00
13027;BME280;6580;42.680;23.324;2023-02-28T09:35:38;95883.16;;;11.51;100.00
13027;BME280;6580;42.680;23.324;2023-02-28T09:38:05;95882.50;;;11.40;100.00
13027;BME280;6580;42.680;23.324;2023-02-28T09:40:35;95889.19;;;11.63;100.00
13027;BME280;6580;42.680;23.324;2023-02-28T09:43:05;95881.84;;;11.28;100.00
13027;BME280;6580;42.680;23.324;2023-02-28T09:45:35;95875.84;;;11.63;100.00
13027;BME280;6580;42.680;23.324;2023-02-28T09:48:11;95876.47;;;11.74;100.00
13027;BME280;6580;42.680;23.324;2023-02-28T09:50:43;95860.75;;;11.71;100.00
13027;BME280;6580;42.680;23.324;2023-02-28T09:53:19;95862.38;;;12.09;100.00
13027;BME280;6580;42.680;23.324;2023-02-28T09:55:50;95871.53;;;12.23;100.00
13027;BME280;6580;42.680;23.324;2023-02-28T09:58:23;95843.97;;;12.06;100.00
13027;BME280;6580;42.680;23.324;2023-02-28T10:00:57;95870.44;;;11.99;100.00
13027;BME280;6580;42.680;23.324;2023-02-28T10:03:34;95856.03;;;12.27;100.00
13027;BME280;6580;42.680;23.324;2023-02-28T10:06:08;95863.00;;;12.80;100.00
13027;BME280;6580;42.680;23.324;2023-02-28T10:08:42;95844.69;;;12.68;100.00
13027;BME280;6580;42.680;23.324;2023-02-28T10:11:15;95853.44;;;13.20;100.00
13027;BME280;6580;42.680;23.324;2023-02-28T10:13:50;95854.06;;;13.15;100.00
13027;BME280;6580;42.680;23.324;2023-02-28T10:16:23;95852.63;;;12.77;100.00
13027;BME280;6580;42.680;23.324;2023-02-28T10:18:59;95850.72;;;12.52;100.00
13027;BME280;6580;42.680;23.324;2023-02-28T10:21:34;95846.50;;;12.67;100.00
13027;BME280;6580;42.680;23.324;2023-02-28T10:24:05;95847.59;;;12.92;100.00
13027;BME280;6580;42.680;23.324;2023-02-28T10:26:38;95838.19;;;12.70;100.00
13027;BME280;6580;42.680;23.324;2023-02-28T10:29:08;95828.69;;;12.93;100.00
13027;BME280;6580;42.680;23.324;2023-02-28T10:31:36;95837.69;;;13.18;100.00
13027;BME280;6580;42.680;23.324;2023-02-28T10:34:06;95834.63;;;13.38;99.95
13027;BME280;6580;42.680;23.324;2023-02-28T10:36:34;95832.47;;;13.41;96.57
13027;BME280;6580;42.680;23.324;2023-02-28T10:39:00;95827.38;;;12.97;100.00
13027;BME280;6580;42.680;23.324;2023-02-28T10:41:30;95827.84;;;13.18;98.97
13027;BME280;6580;42.680;23.324;2023-02-28T10:44:13;95801.25;;;13.50;94.15
13027;BME280;6580;42.680;23.324;2023-02-28T10:46:41;95793.75;;;13.69;91.60
13027;BME280;6580;42.680;23.324;2023-02-28T10:49:15;95787.09;;;13.73;92.48
13027;BME280;6580;42.680;23.324;2023-02-28T10:51:45;95795.50;;;13.94;91.56
13027;BME280;6580;42.680;23.324;2023-02-28T10:54:19;95782.00;;;14.67;89.58
13027;BME280;6580;42.680;23.324;2023-02-28T10:57:12;95777.09;;;15.87;79.56
13027;BME280;6580;42.680;23.324;2023-02-28T10:59:41;95757.88;;;15.45;77.16
13027;BME280;6580;42.680;23.324;2023-02-28T11:02:30;95776.84;;;15.74;76.95
13027;BME280;6580;42.680;23.324;2023-02-28T11:05:00;95766.09;;;16.27;75.11
13027;BME280;6580;42.680;23.324;2023-02-28T11:07:27;95754.84;;;16.54;71.10
13027;BME280;6580;42.680;23.324;2023-02-28T11:09:56;95738.81;;;16.38;70.91
13027;BME280;6580;42.680;23.324;2023-02-28T11:12:26;95754.69;;;16.47;72.80
13027;BME280;6580;42.680;23.324;2023-02-28T11:14:58;95760.00;;;16.11;69.25
13027;BME280;6580;42.680;23.324;2023-02-28T11:17:28;95751.09;;;15.88;72.76
13027;BME280;6580;42.680;23.324;2023-02-28T11:19:58;95742.13;;;15.73;71.92
13027;BME280;6580;42.680;23.324;2023-02-28T11:22:32;95749.50;;;16.01;72.14
13027;BME280;6580;42.680;23.324;2023-02-28T11:25:08;95765.97;;;15.68;72.62
13027;BME280;6580;42.680;23.324;2023-02-28T11:27:47;95744.72;;;15.04;75.01
13027;BME280;6580;42.680;23.324;2023-02-28T11:30:24;95741.69;;;15.92;74.10
13027;BME280;6580;42.680;23.324;2023-02-28T11:32:51;95745.25;;;16.37;70.54
13027;BME280;6580;42.680;23.324;2023-02-28T11:35:24;95755.94;;;15.92;70.33
13027;BME280;6580;42.680;23.324;2023-02-28T11:37:53;95738.00;;;15.54;74.01
13027;BME280;6580;42.680;23.324;2023-02-28T11:40:26;95742.50;;;16.15;70.09
13027;BME280;6580;42.680;23.324;2023-02-28T11:43:10;95743.50;;;15.15;75.53
13027;BME280;6580;42.680;23.324;2023-02-28T11:45:48;95753.66;;;14.89;77.80
13027;BME280;6580;42.680;23.324;2023-02-28T11:48:25;95748.66;;;14.78;78.28
13027;BME280;6580;42.680;23.324;2023-02-28T11:51:09;95753.34;;;15.38;75.52
13027;BME280;6580;42.680;23.324;2023-02-28T11:56:37;95733.09;;;16.41;70.46
13027;BME280;6580;42.680;23.324;2023-02-28T11:59:25;95725.97;;;17.14;65.21
13027;BME280;6580;42.680;23.324;2023-02-28T12:02:06;95726.50;;;16.21;67.55
13027;BME280;6580;42.680;23.324;2023-02-28T12:04:50;95709.66;;;15.82;69.64
13027;BME280;6580;42.680;23.324;2023-02-28T12:07:27;95734.47;;;15.84;70.25
13027;BME280;6580;42.680;23.324;2023-02-28T12:10:06;95728.69;;;15.73;71.38
13027;BME280;6580;42.680;23.324;2023-02-28T12:12:43;95734.06;;;15.42;71.57
13027;BME280;6580;42.680;23.324;2023-02-28T12:15:27;95737.84;;;15.10;73.92
13027;BME280;6580;42.680;23.324;2023-02-28T12:18:08;95732.94;;;15.29;72.88
13027;BME280;6580;42.680;23.324;2023-02-28T12:20:45;95722.69;;;15.32;72.19
13027;BME280;6580;42.680;23.324;2023-02-28T12:23:39;95729.63;;;15.49;71.88
13027;BME280;6580;42.680;23.324;2023-02-28T12:26:15;95726.72;;;15.67;71.50
13027;BME280;6580;42.680;23.324;2023-02-28T12:28:47;95736.13;;;14.54;76.24
13027;BME280;6580;42.680;23.324;2023-02-28T12:31:19;95734.28;;;14.55;77.55
13027;BME280;6580;42.680;23.324;2023-02-28T12:33:51;95728.22;;;15.23;75.38
13027;BME280;6580;42.680;23.324;2023-02-28T12:36:19;95722.34;;;15.35;73.02
13027;BME280;6580;42.680;23.324;2023-02-28T12:38:56;95728.09;;;14.46;75.67
13027;BME280;6580;42.680;23.324;2023-02-28T12:41:34;95734.94;;;14.41;75.90
13027;BME280;6580;42.680;23.324;2023-02-28T12:44:07;95722.41;;;14.25;76.55
13027;BME280;6580;42.680;23.324;2023-02-28T12:46:41;95725.28;;;14.16;79.29
13027;BME280;6580;42.680;23.324;2023-02-28T12:49:12;95721.41;;;14.26;79.46
13027;BME280;6580;42.680;23.324;2023-02-28T12:51:40;95721.38;;;13.87;79.39
13027;BME280;6580;42.680;23.324;2023-02-28T12:54:16;95726.22;;;13.91;81.19
13027;BME280;6580;42.680;23.324;2023-02-28T12:56:49;95708.19;;;14.17;77.25
13027;BME280;6580;42.680;23.324;2023-02-28T12:59:24;95713.53;;;14.33;76.61
13027;BME280;6580;42.680;23.324;2023-02-28T13:02:02;95721.38;;;14.58;76.96
13027;BME280;6580;42.680;23.324;2023-02-28T13:05:06;95717.56;;;14.37;78.42
13027;BME280;6580;42.680;23.324;2023-02-28T13:08:03;95717.72;;;14.35;76.76
13027;BME280;6580;42.680;23.324;2023-02-28T13:10:39;95723.38;;;14.48;77.44
13027;BME280;6580;42.680;23.324;2023-02-28T13:13:14;95735.13;;;14.39;76.09
13027;BME280;6580;42.680;23.324;2023-02-28T13:15:56;95706.31;;;13.86;77.11
13027;BME280;6580;42.680;23.324;2023-02-28T13:18:35;95714.66;;;13.83;79.84
13027;BME280;6580;42.680;23.324;2023-02-28T13:21:04;95725.03;;;13.78;79.87
13027;BME280;6580;42.680;23.324;2023-02-28T13:23:41;95711.47;;;13.63;81.47
13027;BME280;6580;42.680;23.324;2023-02-28T13:29:30;95704.44;;;13.62;81.91
13027;BME280;6580;42.680;23.324;2023-02-28T13:35:43;95712.13;;;13.57;82.21
13027;BME280;6580;42.680;23.324;2023-02-28T13:38:36;95718.69;;;13.95;82.39